sensor_id;sensor_type;location;lat;lon;timestamp;P1;durP1;ratioP1;P2;durP2;ratioP2
11439;SDS011;5776;51.814;4.510;2023-04-06T00:01:39;9.20;;;5.73;;
11439;SDS011;5776;51.814;4.510;2023-04-06T00:04:05;13.30;;;7.87;;
11439;SDS011;5776;51.814;4.510;2023-04-06T00:06:32;10.70;;;6.53;;
11439;SDS011;5776;51.814;4.510;2023-04-06T00:08:58;10.70;;;6.73;;
11439;SDS011;5776;51.814;4.510;2023-04-06T00:11:25;11.67;;;6.77;;
11439;SDS011;5776;51.814;4.510;2023-04-06T00:13:51;9.10;;;6.43;;
11439;SDS011;5776;51.814;4.510;2023-04-06T00:16:17;11.50;;;7.57;;
11439;SDS011;5776;51.814;4.510;2023-04-06T00:18:43;12.13;;;7.27;;
11439;SDS011;5776;51.814;4.510;2023-04-06T00:21:11;10.67;;;7.67;;
11439;SDS011;5776;51.814;4.510;2023-04-06T00:23:38;13.87;;;7.63;;
11439;SDS011;5776;51.814;4.510;2023-04-06T00:26:04;12.70;;;6.90;;
11439;SDS011;5776;51.814;4.510;2023-04-06T00:28:30;10.20;;;6.40;;
11439;SDS011;5776;51.814;4.510;2023-04-06T00:30:56;10.50;;;6.63;;
11439;SDS011;5776;51.814;4.510;2023-04-06T00:33:22;11.43;;;8.37;;
11439;SDS011;5776;51.814;4.510;2023-04-06T00:35:49;13.60;;;7.97;;
11439;SDS011;5776;51.814;4.510;2023-04-06T00:38:15;12.07;;;7.17;;
11439;SDS011;5776;51.814;4.510;2023-04-06T00:40:42;9.83;;;6.00;;
11439;SDS011;5776;51.814;4.510;2023-04-06T00:43:09;11.07;;;6.70;;
11439;SDS011;5776;51.814;4.510;2023-04-06T00:45:37;14.40;;;8.03;;
11439;SDS011;5776;51.814;4.510;2023-04-06T00:48:05;11.33;;;6.50;;
11439;SDS011;5776;51.814;4.510;2023-04-06T00:50:31;9.63;;;6.40;;
11439;SDS011;5776;51.814;4.510;2023-04-06T00:52:58;10.17;;;6.87;;
11439;SDS011;5776;51.814;4.510;2023-04-06T00:55:24;9.83;;;7.00;;
11439;SDS011;5776;51.814;4.510;2023-04-06T00:57:50;8.77;;;6.33;;
11439;SDS011;5776;51.814;4.510;2023-04-06T01:00:16;10.70;;;7.10;;
11439;SDS011;5776;51.814;4.510;2023-04-06T01:02:42;12.87;;;7.17;;
11439;SDS011;5776;51.814;4.510;2023-04-06T01:05:10;11.20;;;7.60;;
11439;SDS011;5776;51.814;4.510;2023-04-06T01:07:36;13.17;;;8.23;;
11439;SDS011;5776;51.814;4.510;2023-04-06T01:10:02;14.83;;;8.10;;
11439;SDS011;5776;51.814;4.510;2023-04-06T01:12:29;15.47;;;7.93;;
11439;SDS011;5776;51.814;4.510;2023-04-06T01:14:55;12.53;;;8.13;;
11439;SDS011;5776;51.814;4.510;2023-04-06T01:17:21;13.27;;;7.77;;
11439;SDS011;5776;51.814;4.510;2023-04-06T01:19:47;12.77;;;8.77;;
11439;SDS011;5776;51.814;4.510;2023-04-06T01:22:15;10.03;;;7.30;;
11439;SDS011;5776;51.814;4.510;2023-04-06T01:24:42;12.73;;;8.40;;
11439;SDS011;5776;51.814;4.510;2023-04-06T01:27:08;10.60;;;7.50;;
11439;SDS011;5776;51.814;4.510;2023-04-06T01:29:34;12.27;;;7.40;;
11439;SDS011;5776;51.814;4.510;2023-04-06T01:32:00;9.87;;;6.90;;
11439;SDS011;5776;51.814;4.510;2023-04-06T01:34:26;14.67;;;8.37;;
11439;SDS011;5776;51.814;4.510;2023-04-06T01:36:52;11.17;;;8.03;;
11439;SDS011;5776;51.814;4.510;2023-04-06T01:39:19;12.27;;;7.60;;
11439;SDS011;5776;51.814;4.510;2023-04-06T01:41:45;16.93;;;9.30;;
11439;SDS011;5776;51.814;4.510;2023-04-06T01:44:16;14.17;;;7.57;;
11439;SDS011;5776;51.814;4.510;2023-04-06T01:46:43;11.77;;;8.47;;
11439;SDS011;5776;51.814;4.510;2023-04-06T01:49:09;11.53;;;7.80;;
11439;SDS011;5776;51.814;4.510;2023-04-06T01:51:35;14.53;;;8.70;;
11439;SDS011;5776;51.814;4.510;2023-04-06T01:54:01;9.43;;;6.87;;
11439;SDS011;5776;51.814;4.510;2023-04-06T01:56:27;16.73;;;10.53;;
11439;SDS011;5776;51.814;4.510;2023-04-06T01:58:53;15.63;;;9.07;;
11439;SDS011;5776;51.814;4.510;2023-04-06T02:01:19;17.80;;;9.40;;
11439;SDS011;5776;51.814;4.510;2023-04-06T02:03:45;12.03;;;7.20;;
11439;SDS011;5776;51.814;4.510;2023-04-06T02:06:10;16.23;;;10.20;;
11439;SDS011;5776;51.814;4.510;2023-04-06T02:08:36;17.30;;;10.47;;
11439;SDS011;5776;51.814;4.510;2023-04-06T02:11:02;13.53;;;8.47;;
11439;SDS011;5776;51.814;4.510;2023-04-06T02:13:28;13.83;;;9.10;;
11439;SDS011;5776;51.814;4.510;2023-04-06T02:15:54;18.03;;;9.90;;
11439;SDS011;5776;51.814;4.510;2023-04-06T02:18:20;11.97;;;7.63;;
11439;SDS011;5776;51.814;4.510;2023-04-06T02:20:46;14.23;;;8.73;;
11439;SDS011;5776;51.814;4.510;2023-04-06T02:23:12;9.60;;;6.87;;
11439;SDS011;5776;51.814;4.510;2023-04-06T02:25:38;14.33;;;9.37;;
11439;SDS011;5776;51.814;4.510;2023-04-06T02:28:04;16.13;;;8.50;;
11439;SDS011;5776;51.814;4.510;2023-04-06T02:30:30;13.80;;;9.37;;
11439;SDS011;5776;51.814;4.510;2023-04-06T02:33:01;14.80;;;7.43;;
11439;SDS011;5776;51.814;4.510;2023-04-06T02:35:27;17.67;;;8.80;;
11439;SDS011;5776;51.814;4.510;2023-04-06T02:37:54;17.93;;;8.30;;
11439;SDS011;5776;51.814;4.510;2023-04-06T02:40:20;15.63;;;8.63;;
11439;SDS011;5776;51.814;4.510;2023-04-06T02:42:46;20.00;;;9.57;;
11439;SDS011;5776;51.814;4.510;2023-04-06T02:45:11;12.17;;;7.80;;
11439;SDS011;5776;51.814;4.510;2023-04-06T02:47:38;16.93;;;9.03;;
11439;SDS011;5776;51.814;4.510;2023-04-06T02:50:04;16.63;;;9.77;;
11439;SDS011;5776;51.814;4.510;2023-04-06T02:52:30;15.30;;;10.17;;
11439;SDS011;5776;51.814;4.510;2023-04-06T02:54:57;17.47;;;10.63;;
11439;SDS011;5776;51.814;4.510;2023-04-06T02:57:23;14.57;;;9.20;;
11439;SDS011;5776;51.814;4.510;2023-04-06T02:59:49;14.70;;;9.17;;
11439;SDS011;5776;51.814;4.510;2023-04-06T03:02:14;12.30;;;7.67;;
11439;SDS011;5776;51.814;4.510;2023-04-06T03:04:40;13.07;;;8.60;;
11439;SDS011;5776;51.814;4.510;2023-04-06T03:07:07;13.20;;;7.53;;
11439;SDS011;5776;51.814;4.510;2023-04-06T03:09:33;16.93;;;9.47;;
11439;SDS011;5776;51.814;4.510;2023-04-06T03:11:59;17.37;;;10.40;;
11439;SDS011;5776;51.814;4.510;2023-04-06T03:14:27;13.07;;;8.43;;
11439;SDS011;5776;51.814;4.510;2023-04-06T03:16:53;18.23;;;10.40;;
11439;SDS011;5776;51.814;4.510;2023-04-06T03:19:19;10.43;;;7.20;;
11439;SDS011;5776;51.814;4.510;2023-04-06T03:21:45;12.80;;;7.80;;
11439;SDS011;5776;51.814;4.510;2023-04-06T03:24:10;16.23;;;8.97;;
11439;SDS011;5776;51.814;4.510;2023-04-06T03:26:36;16.90;;;10.10;;
11439;SDS011;5776;51.814;4.510;2023-04-06T03:29:02;17.53;;;10.87;;
11439;SDS011;5776;51.814;4.510;2023-04-06T03:31:28;18.13;;;9.70;;
11439;SDS011;5776;51.814;4.510;2023-04-06T03:33:54;10.77;;;7.13;;
11439;SDS011;5776;51.814;4.510;2023-04-06T03:36:20;16.63;;;7.87;;
11439;SDS011;5776;51.814;4.510;2023-04-06T03:38:46;19.70;;;11.73;;
11439;SDS011;5776;51.814;4.510;2023-04-06T03:41:12;17.47;;;10.70;;
11439;SDS011;5776;51.814;4.510;2023-04-06T03:43:37;16.90;;;10.10;;
11439;SDS011;5776;51.814;4.510;2023-04-06T03:46:03;13.40;;;8.10;;
11439;SDS011;5776;51.814;4.510;2023-04-06T03:48:29;15.50;;;9.37;;
11439;SDS011;5776;51.814;4.510;2023-04-06T03:50:56;15.97;;;9.00;;
11439;SDS011;5776;51.814;4.510;2023-04-06T03:53:22;11.97;;;7.33;;
11439;SDS011;5776;51.814;4.510;2023-04-06T03:55:47;15.47;;;9.17;;
11439;SDS011;5776;51.814;4.510;2023-04-06T03:58:13;17.67;;;9.23;;
11439;SDS011;5776;51.814;4.510;2023-04-06T04:00:39;15.47;;;9.33;;
11439;SDS011;5776;51.814;4.510;2023-04-06T04:03:05;12.10;;;7.60;;
11439;SDS011;5776;51.814;4.510;2023-04-06T04:05:31;14.50;;;8.97;;
11439;SDS011;5776;51.814;4.510;2023-04-06T04:07:56;11.90;;;7.50;;
11439;SDS011;5776;51.814;4.510;2023-04-06T04:10:22;16.50;;;9.23;;
11439;SDS011;5776;51.814;4.510;2023-04-06T04:12:48;12.40;;;7.93;;
11439;SDS011;5776;51.814;4.510;2023-04-06T04:15:14;9.90;;;6.53;;
11439;SDS011;5776;51.814;4.510;2023-04-06T04:17:40;14.93;;;9.20;;
11439;SDS011;5776;51.814;4.510;2023-04-06T04:20:06;19.20;;;10.80;;
11439;SDS011;5776;51.814;4.510;2023-04-06T04:22:33;16.10;;;10.07;;
11439;SDS011;5776;51.814;4.510;2023-04-06T04:24:59;15.20;;;9.80;;
11439;SDS011;5776;51.814;4.510;2023-04-06T04:27:25;16.10;;;9.90;;
11439;SDS011;5776;51.814;4.510;2023-04-06T04:29:51;16.57;;;10.40;;
11439;SDS011;5776;51.814;4.510;2023-04-06T04:32:17;16.17;;;10.40;;
11439;SDS011;5776;51.814;4.510;2023-04-06T04:34:42;18.50;;;11.60;;
11439;SDS011;5776;51.814;4.510;2023-04-06T04:37:08;19.63;;;11.77;;
11439;SDS011;5776;51.814;4.510;2023-04-06T04:39:34;18.43;;;11.03;;
11439;SDS011;5776;51.814;4.510;2023-04-06T04:42:00;18.13;;;11.77;;
11439;SDS011;5776;51.814;4.510;2023-04-06T04:44:26;18.83;;;11.03;;
11439;SDS011;5776;51.814;4.510;2023-04-06T04:46:52;17.00;;;10.50;;
11439;SDS011;5776;51.814;4.510;2023-04-06T04:49:17;17.00;;;9.83;;
11439;SDS011;5776;51.814;4.510;2023-04-06T04:51:43;21.10;;;12.57;;
11439;SDS011;5776;51.814;4.510;2023-04-06T04:54:09;25.33;;;12.83;;
11439;SDS011;5776;51.814;4.510;2023-04-06T04:56:35;21.07;;;13.20;;
11439;SDS011;5776;51.814;4.510;2023-04-06T04:59:01;20.03;;;11.30;;
11439;SDS011;5776;51.814;4.510;2023-04-06T05:01:27;22.10;;;12.70;;
11439;SDS011;5776;51.814;4.510;2023-04-06T05:03:53;17.30;;;10.63;;
11439;SDS011;5776;51.814;4.510;2023-04-06T05:06:19;14.83;;;9.67;;
11439;SDS011;5776;51.814;4.510;2023-04-06T05:08:45;14.33;;;8.23;;
11439;SDS011;5776;51.814;4.510;2023-04-06T05:11:11;21.10;;;12.57;;
11439;SDS011;5776;51.814;4.510;2023-04-06T05:13:37;20.23;;;12.13;;
11439;SDS011;5776;51.814;4.510;2023-04-06T05:16:03;14.67;;;9.50;;
11439;SDS011;5776;51.814;4.510;2023-04-06T05:18:29;19.70;;;12.23;;
11439;SDS011;5776;51.814;4.510;2023-04-06T05:20:55;17.90;;;11.83;;
11439;SDS011;5776;51.814;4.510;2023-04-06T05:23:21;18.10;;;10.57;;
11439;SDS011;5776;51.814;4.510;2023-04-06T05:25:47;16.90;;;10.53;;
11439;SDS011;5776;51.814;4.510;2023-04-06T05:28:13;17.37;;;9.37;;
11439;SDS011;5776;51.814;4.510;2023-04-06T05:30:41;12.53;;;7.27;;
11439;SDS011;5776;51.814;4.510;2023-04-06T05:33:09;15.70;;;9.70;;
11439;SDS011;5776;51.814;4.510;2023-04-06T05:35:35;14.67;;;8.67;;
11439;SDS011;5776;51.814;4.510;2023-04-06T05:38:01;13.77;;;8.30;;
11439;SDS011;5776;51.814;4.510;2023-04-06T05:40:26;18.70;;;10.23;;
11439;SDS011;5776;51.814;4.510;2023-04-06T05:42:52;22.47;;;12.10;;
11439;SDS011;5776;51.814;4.510;2023-04-06T05:45:19;19.70;;;12.10;;
11439;SDS011;5776;51.814;4.510;2023-04-06T05:47:46;22.70;;;12.20;;
11439;SDS011;5776;51.814;4.510;2023-04-06T05:50:12;20.53;;;11.67;;
11439;SDS011;5776;51.814;4.510;2023-04-06T05:52:41;19.60;;;11.70;;
11439;SDS011;5776;51.814;4.510;2023-04-06T05:55:08;21.17;;;12.87;;
11439;SDS011;5776;51.814;4.510;2023-04-06T05:57:35;21.73;;;11.63;;
11439;SDS011;5776;51.814;4.510;2023-04-06T06:00:01;22.33;;;12.00;;
11439;SDS011;5776;51.814;4.510;2023-04-06T06:02:32;13.80;;;7.00;;
11439;SDS011;5776;51.814;4.510;2023-04-06T06:04:58;19.60;;;9.57;;
11439;SDS011;5776;51.814;4.510;2023-04-06T06:07:24;16.20;;;8.90;;
11439;SDS011;5776;51.814;4.510;2023-04-06T06:09:50;17.43;;;9.17;;
11439;SDS011;5776;51.814;4.510;2023-04-06T06:12:16;12.27;;;6.80;;
11439;SDS011;5776;51.814;4.510;2023-04-06T06:14:42;16.40;;;9.60;;
11439;SDS011;5776;51.814;4.510;2023-04-06T06:17:07;9.70;;;6.00;;
11439;SDS011;5776;51.814;4.510;2023-04-06T06:19:34;18.93;;;10.13;;
11439;SDS011;5776;51.814;4.510;2023-04-06T06:22:00;14.53;;;8.37;;
11439;SDS011;5776;51.814;4.510;2023-04-06T06:24:28;17.40;;;10.00;;
11439;SDS011;5776;51.814;4.510;2023-04-06T06:26:54;16.53;;;9.93;;
11439;SDS011;5776;51.814;4.510;2023-04-06T06:29:20;14.90;;;8.83;;
11439;SDS011;5776;51.814;4.510;2023-04-06T06:31:46;19.10;;;11.13;;
11439;SDS011;5776;51.814;4.510;2023-04-06T06:34:11;22.27;;;11.23;;
11439;SDS011;5776;51.814;4.510;2023-04-06T06:36:38;16.47;;;7.93;;
11439;SDS011;5776;51.814;4.510;2023-04-06T06:39:05;12.03;;;6.87;;
11439;SDS011;5776;51.814;4.510;2023-04-06T06:41:31;17.30;;;10.63;;
11439;SDS011;5776;51.814;4.510;2023-04-06T06:43:57;13.73;;;8.00;;
11439;SDS011;5776;51.814;4.510;2023-04-06T06:46:22;19.73;;;10.37;;
11439;SDS011;5776;51.814;4.510;2023-04-06T06:48:49;12.50;;;7.67;;
11439;SDS011;5776;51.814;4.510;2023-04-06T06:51:15;17.23;;;9.97;;
11439;SDS011;5776;51.814;4.510;2023-04-06T06:53:41;18.80;;;11.43;;
11439;SDS011;5776;51.814;4.510;2023-04-06T06:56:06;20.40;;;12.27;;
11439;SDS011;5776;51.814;4.510;2023-04-06T06:58:32;18.17;;;10.80;;
11439;SDS011;5776;51.814;4.510;2023-04-06T07:00:58;16.13;;;9.63;;
11439;SDS011;5776;51.814;4.510;2023-04-06T07:03:24;19.37;;;11.03;;
11439;SDS011;5776;51.814;4.510;2023-04-06T07:05:51;24.87;;;11.63;;
11439;SDS011;5776;51.814;4.510;2023-04-06T07:08:20;19.07;;;10.90;;
11439;SDS011;5776;51.814;4.510;2023-04-06T07:10:47;19.03;;;10.73;;
11439;SDS011;5776;51.814;4.510;2023-04-06T07:13:14;18.67;;;11.07;;
11439;SDS011;5776;51.814;4.510;2023-04-06T07:15:47;19.00;;;10.70;;
11439;SDS011;5776;51.814;4.510;2023-04-06T07:18:13;16.43;;;10.53;;
11439;SDS011;5776;51.814;4.510;2023-04-06T07:20:39;15.27;;;9.73;;
11439;SDS011;5776;51.814;4.510;2023-04-06T07:23:06;16.83;;;9.73;;
11439;SDS011;5776;51.814;4.510;2023-04-06T07:25:32;19.73;;;11.80;;
11439;SDS011;5776;51.814;4.510;2023-04-06T07:27:58;17.23;;;10.83;;
11439;SDS011;5776;51.814;4.510;2023-04-06T07:30:23;18.47;;;11.07;;
11439;SDS011;5776;51.814;4.510;2023-04-06T07:32:51;17.90;;;10.73;;
11439;SDS011;5776;51.814;4.510;2023-04-06T07:35:17;19.00;;;10.33;;
11439;SDS011;5776;51.814;4.510;2023-04-06T07:37:44;24.73;;;12.47;;
11439;SDS011;5776;51.814;4.510;2023-04-06T07:40:10;26.40;;;15.30;;
11439;SDS011;5776;51.814;4.510;2023-04-06T07:42:36;31.50;;;18.53;;
11439;SDS011;5776;51.814;4.510;2023-04-06T07:45:02;21.87;;;12.63;;
11439;SDS011;5776;51.814;4.510;2023-04-06T07:47:29;23.63;;;13.57;;
11439;SDS011;5776;51.814;4.510;2023-04-06T07:49:55;18.37;;;11.27;;
11439;SDS011;5776;51.814;4.510;2023-04-06T07:52:23;20.63;;;11.57;;
11439;SDS011;5776;51.814;4.510;2023-04-06T07:54:49;18.40;;;11.10;;
11439;SDS011;5776;51.814;4.510;2023-04-06T07:57:15;24.90;;;11.97;;
11439;SDS011;5776;51.814;4.510;2023-04-06T07:59:41;19.20;;;10.43;;
11439;SDS011;5776;51.814;4.510;2023-04-06T08:02:07;23.03;;;12.60;;
11439;SDS011;5776;51.814;4.510;2023-04-06T08:04:33;17.90;;;11.37;;
11439;SDS011;5776;51.814;4.510;2023-04-06T08:06:59;24.93;;;14.60;;
11439;SDS011;5776;51.814;4.510;2023-04-06T08:09:25;23.70;;;13.70;;
11439;SDS011;5776;51.814;4.510;2023-04-06T08:11:51;20.67;;;12.67;;
11439;SDS011;5776;51.814;4.510;2023-04-06T08:14:16;25.80;;;15.30;;
11439;SDS011;5776;51.814;4.510;2023-04-06T08:16:42;22.27;;;10.93;;
11439;SDS011;5776;51.814;4.510;2023-04-06T08:19:08;24.13;;;14.00;;
11439;SDS011;5776;51.814;4.510;2023-04-06T08:21:35;26.37;;;14.80;;
11439;SDS011;5776;51.814;4.510;2023-04-06T08:24:01;23.50;;;12.73;;
11439;SDS011;5776;51.814;4.510;2023-04-06T08:26:27;24.33;;;13.50;;
11439;SDS011;5776;51.814;4.510;2023-04-06T08:28:53;24.30;;;14.57;;
11439;SDS011;5776;51.814;4.510;2023-04-06T08:31:19;24.47;;;13.60;;
11439;SDS011;5776;51.814;4.510;2023-04-06T08:33:45;27.53;;;15.33;;
11439;SDS011;5776;51.814;4.510;2023-04-06T08:36:12;27.60;;;13.57;;
11439;SDS011;5776;51.814;4.510;2023-04-06T08:38:40;21.73;;;12.47;;
11439;SDS011;5776;51.814;4.510;2023-04-06T08:41:12;19.87;;;12.23;;
11439;SDS011;5776;51.814;4.510;2023-04-06T08:43:42;21.97;;;12.53;;
11439;SDS011;5776;51.814;4.510;2023-04-06T08:46:09;16.13;;;9.73;;
11439;SDS011;5776;51.814;4.510;2023-04-06T08:48:36;18.53;;;9.97;;
11439;SDS011;5776;51.814;4.510;2023-04-06T08:51:04;16.50;;;8.60;;
11439;SDS011;5776;51.814;4.510;2023-04-06T08:53:30;17.77;;;9.93;;
11439;SDS011;5776;51.814;4.510;2023-04-06T08:55:56;16.47;;;10.20;;
11439;SDS011;5776;51.814;4.510;2023-04-06T08:58:24;15.50;;;9.30;;
11439;SDS011;5776;51.814;4.510;2023-04-06T09:00:53;19.70;;;8.83;;
11439;SDS011;5776;51.814;4.510;2023-04-06T09:03:20;19.17;;;10.73;;
11439;SDS011;5776;51.814;4.510;2023-04-06T09:05:46;18.03;;;9.07;;
11439;SDS011;5776;51.814;4.510;2023-04-06T09:08:12;19.53;;;8.47;;
11439;SDS011;5776;51.814;4.510;2023-04-06T09:10:40;14.07;;;8.00;;
11439;SDS011;5776;51.814;4.510;2023-04-06T09:13:07;14.33;;;6.33;;
11439;SDS011;5776;51.814;4.510;2023-04-06T09:15:34;15.20;;;7.33;;
11439;SDS011;5776;51.814;4.510;2023-04-06T09:18:00;17.23;;;7.10;;
11439;SDS011;5776;51.814;4.510;2023-04-06T09:20:27;10.87;;;6.30;;
11439;SDS011;5776;51.814;4.510;2023-04-06T09:22:54;9.97;;;6.17;;
11439;SDS011;5776;51.814;4.510;2023-04-06T09:25:21;10.40;;;6.50;;
11439;SDS011;5776;51.814;4.510;2023-04-06T09:27:48;10.73;;;6.57;;
11439;SDS011;5776;51.814;4.510;2023-04-06T09:30:15;7.83;;;5.23;;
11439;SDS011;5776;51.814;4.510;2023-04-06T09:32:52;11.07;;;7.73;;
11439;SDS011;5776;51.814;4.510;2023-04-06T09:35:19;11.20;;;6.07;;
11439;SDS011;5776;51.814;4.510;2023-04-06T09:37:46;7.93;;;5.17;;
11439;SDS011;5776;51.814;4.510;2023-04-06T09:40:14;8.37;;;5.47;;
11439;SDS011;5776;51.814;4.510;2023-04-06T09:42:41;10.90;;;5.13;;
11439;SDS011;5776;51.814;4.510;2023-04-06T09:45:10;9.47;;;5.00;;
11439;SDS011;5776;51.814;4.510;2023-04-06T09:47:36;9.77;;;5.50;;
11439;SDS011;5776;51.814;4.510;2023-04-06T09:50:03;9.50;;;5.20;;
11439;SDS011;5776;51.814;4.510;2023-04-06T09:52:33;6.57;;;4.47;;
11439;SDS011;5776;51.814;4.510;2023-04-06T09:55:04;10.17;;;5.93;;
11439;SDS011;5776;51.814;4.510;2023-04-06T09:57:41;7.87;;;4.57;;
11439;SDS011;5776;51.814;4.510;2023-04-06T10:00:23;9.53;;;5.43;;
11439;SDS011;5776;51.814;4.510;2023-04-06T10:02:54;10.57;;;5.17;;
11439;SDS011;5776;51.814;4.510;2023-04-06T10:05:33;11.37;;;6.10;;
11439;SDS011;5776;51.814;4.510;2023-04-06T10:08:09;7.27;;;4.47;;
11439;SDS011;5776;51.814;4.510;2023-04-06T10:10:36;8.93;;;6.03;;
11439;SDS011;5776;51.814;4.510;2023-04-06T10:13:03;7.23;;;4.40;;
11439;SDS011;5776;51.814;4.510;2023-04-06T10:15:29;8.73;;;5.60;;
11439;SDS011;5776;51.814;4.510;2023-04-06T10:17:56;12.10;;;6.70;;
11439;SDS011;5776;51.814;4.510;2023-04-06T10:20:26;8.17;;;6.07;;
11439;SDS011;5776;51.814;4.510;2023-04-06T10:26:00;7.50;;;3.80;;
11439;SDS011;5776;51.814;4.510;2023-04-06T10:28:31;8.87;;;3.93;;
11439;SDS011;5776;51.814;4.510;2023-04-06T10:31:03;6.53;;;4.40;;
11439;SDS011;5776;51.814;4.510;2023-04-06T10:33:31;6.00;;;4.30;;
11439;SDS011;5776;51.814;4.510;2023-04-06T10:35:57;6.93;;;3.30;;
11439;SDS011;5776;51.814;4.510;2023-04-06T10:38:37;7.90;;;3.97;;
11439;SDS011;5776;51.814;4.510;2023-04-06T10:41:04;7.17;;;3.80;;
11439;SDS011;5776;51.814;4.510;2023-04-06T10:43:34;5.83;;;3.67;;
11439;SDS011;5776;51.814;4.510;2023-04-06T10:46:05;8.47;;;4.30;;
11439;SDS011;5776;51.814;4.510;2023-04-06T10:48:37;8.90;;;4.70;;
11439;SDS011;5776;51.814;4.510;2023-04-06T10:51:06;7.77;;;4.60;;
11439;SDS011;5776;51.814;4.510;2023-04-06T10:53:37;7.33;;;4.30;;
11439;SDS011;5776;51.814;4.510;2023-04-06T10:56:04;6.03;;;4.20;;
11439;SDS011;5776;51.814;4.510;2023-04-06T10:58:34;6.13;;;4.20;;
11439;SDS011;5776;51.814;4.510;2023-04-06T11:01:01;6.20;;;3.77;;
11439;SDS011;5776;51.814;4.510;2023-04-06T11:03:29;5.13;;;2.80;;
11439;SDS011;5776;51.814;4.510;2023-04-06T11:05:55;7.60;;;4.37;;
11439;SDS011;5776;51.814;4.510;2023-04-06T11:08:22;5.07;;;3.20;;
11439;SDS011;5776;51.814;4.510;2023-04-06T11:10:48;9.23;;;4.73;;
11439;SDS011;5776;51.814;4.510;2023-04-06T11:13:15;5.03;;;3.73;;
11439;SDS011;5776;51.814;4.510;2023-04-06T11:15:40;7.63;;;3.57;;
11439;SDS011;5776;51.814;4.510;2023-04-06T11:18:06;6.63;;;4.47;;
11439;SDS011;5776;51.814;4.510;2023-04-06T11:20:32;8.83;;;4.53;;
11439;SDS011;5776;51.814;4.510;2023-04-06T11:22:58;6.17;;;3.60;;
11439;SDS011;5776;51.814;4.510;2023-04-06T11:25:25;4.47;;;1.70;;
11439;SDS011;5776;51.814;4.510;2023-04-06T11:27:56;5.03;;;3.50;;
11439;SDS011;5776;51.814;4.510;2023-04-06T11:30:22;5.47;;;3.40;;
11439;SDS011;5776;51.814;4.510;2023-04-06T11:32:48;6.17;;;4.00;;
11439;SDS011;5776;51.814;4.510;2023-04-06T11:35:21;8.07;;;3.90;;
11439;SDS011;5776;51.814;4.510;2023-04-06T11:37:48;10.17;;;5.07;;
11439;SDS011;5776;51.814;4.510;2023-04-06T11:40:15;3.83;;;1.77;;
11439;SDS011;5776;51.814;4.510;2023-04-06T11:42:51;7.43;;;4.40;;
11439;SDS011;5776;51.814;4.510;2023-04-06T11:45:21;8.03;;;4.70;;
11439;SDS011;5776;51.814;4.510;2023-04-06T11:47:57;8.27;;;4.40;;
11439;SDS011;5776;51.814;4.510;2023-04-06T11:50:25;5.27;;;2.93;;
11439;SDS011;5776;51.814;4.510;2023-04-06T11:52:57;5.23;;;3.43;;
11439;SDS011;5776;51.814;4.510;2023-04-06T11:55:25;3.80;;;2.53;;
11439;SDS011;5776;51.814;4.510;2023-04-06T11:57:52;6.10;;;3.90;;
11439;SDS011;5776;51.814;4.510;2023-04-06T12:00:18;3.63;;;2.77;;
11439;SDS011;5776;51.814;4.510;2023-04-06T12:02:46;5.57;;;3.80;;
11439;SDS011;5776;51.814;4.510;2023-04-06T12:05:12;7.70;;;3.43;;
11439;SDS011;5776;51.814;4.510;2023-04-06T12:07:38;3.20;;;1.87;;
11439;SDS011;5776;51.814;4.510;2023-04-06T12:10:04;4.77;;;2.13;;
11439;SDS011;5776;51.814;4.510;2023-04-06T12:12:31;8.27;;;4.47;;
11439;SDS011;5776;51.814;4.510;2023-04-06T12:14:57;6.30;;;3.87;;
11439;SDS011;5776;51.814;4.510;2023-04-06T12:17:24;4.83;;;3.03;;
11439;SDS011;5776;51.814;4.510;2023-04-06T12:19:50;6.83;;;4.17;;
11439;SDS011;5776;51.814;4.510;2023-04-06T12:22:15;6.53;;;4.30;;
11439;SDS011;5776;51.814;4.510;2023-04-06T12:24:42;8.33;;;4.73;;
11439;SDS011;5776;51.814;4.510;2023-04-06T12:27:08;5.57;;;3.80;;
11439;SDS011;5776;51.814;4.510;2023-04-06T12:29:39;3.67;;;2.70;;
11439;SDS011;5776;51.814;4.510;2023-04-06T12:32:05;5.60;;;3.60;;
11439;SDS011;5776;51.814;4.510;2023-04-06T12:34:32;15.20;;;6.43;;
11439;SDS011;5776;51.814;4.510;2023-04-06T12:36:58;32.50;;;7.23;;
11439;SDS011;5776;51.814;4.510;2023-04-06T12:39:24;7.13;;;4.67;;
11439;SDS011;5776;51.814;4.510;2023-04-06T12:41:50;10.77;;;5.33;;
11439;SDS011;5776;51.814;4.510;2023-04-06T12:44:28;8.63;;;5.90;;
11439;SDS011;5776;51.814;4.510;2023-04-06T12:46:54;9.70;;;6.33;;
11439;SDS011;5776;51.814;4.510;2023-04-06T12:49:20;11.73;;;7.63;;
11439;SDS011;5776;51.814;4.510;2023-04-06T12:51:47;8.47;;;5.53;;
11439;SDS011;5776;51.814;4.510;2023-04-06T12:54:13;11.20;;;5.23;;
11439;SDS011;5776;51.814;4.510;2023-04-06T12:56:39;7.20;;;4.60;;
11439;SDS011;5776;51.814;4.510;2023-04-06T12:59:05;7.77;;;5.30;;
11439;SDS011;5776;51.814;4.510;2023-04-06T13:01:31;5.90;;;4.20;;
11439;SDS011;5776;51.814;4.510;2023-04-06T13:03:58;7.23;;;5.50;;
11439;SDS011;5776;51.814;4.510;2023-04-06T13:06:24;7.37;;;4.43;;
11439;SDS011;5776;51.814;4.510;2023-04-06T13:08:54;4.97;;;3.90;;
11439;SDS011;5776;51.814;4.510;2023-04-06T13:11:20;5.53;;;4.03;;
11439;SDS011;5776;51.814;4.510;2023-04-06T13:13:49;7.30;;;4.80;;
11439;SDS011;5776;51.814;4.510;2023-04-06T13:16:15;4.23;;;2.43;;
11439;SDS011;5776;51.814;4.510;2023-04-06T13:18:42;4.27;;;3.33;;
11439;SDS011;5776;51.814;4.510;2023-04-06T13:21:08;7.50;;;4.37;;
11439;SDS011;5776;51.814;4.510;2023-04-06T13:23:34;5.37;;;3.70;;
11439;SDS011;5776;51.814;4.510;2023-04-06T13:26:00;6.33;;;4.57;;
11439;SDS011;5776;51.814;4.510;2023-04-06T13:28:28;5.73;;;4.40;;
11439;SDS011;5776;51.814;4.510;2023-04-06T13:30:54;5.97;;;4.33;;
11439;SDS011;5776;51.814;4.510;2023-04-06T13:33:21;6.10;;;4.30;;
11439;SDS011;5776;51.814;4.510;2023-04-06T13:35:47;5.73;;;4.00;;
11439;SDS011;5776;51.814;4.510;2023-04-06T13:38:15;5.70;;;4.40;;
11439;SDS011;5776;51.814;4.510;2023-04-06T13:40:41;5.80;;;4.00;;
11439;SDS011;5776;51.814;4.510;2023-04-06T13:43:07;5.53;;;3.53;;
11439;SDS011;5776;51.814;4.510;2023-04-06T13:45:33;5.83;;;3.97;;
11439;SDS011;5776;51.814;4.510;2023-04-06T13:47:59;5.23;;;3.87;;
11439;SDS011;5776;51.814;4.510;2023-04-06T13:50:26;6.60;;;4.93;;
11439;SDS011;5776;51.814;4.510;2023-04-06T13:52:52;8.13;;;3.83;;
11439;SDS011;5776;51.814;4.510;2023-04-06T13:55:19;5.43;;;4.10;;
11439;SDS011;5776;51.814;4.510;2023-04-06T13:57:45;5.37;;;4.03;;
11439;SDS011;5776;51.814;4.510;2023-04-06T14:00:10;10.83;;;4.70;;
11439;SDS011;5776;51.814;4.510;2023-04-06T14:02:38;7.27;;;5.67;;
11439;SDS011;5776;51.814;4.510;2023-04-06T14:05:05;6.03;;;4.20;;
11439;SDS011;5776;51.814;4.510;2023-04-06T14:07:31;7.40;;;4.93;;
11439;SDS011;5776;51.814;4.510;2023-04-06T14:09:57;8.03;;;5.80;;
11439;SDS011;5776;51.814;4.510;2023-04-06T14:12:23;8.50;;;5.63;;
11439;SDS011;5776;51.814;4.510;2023-04-06T14:14:50;11.17;;;6.80;;
11439;SDS011;5776;51.814;4.510;2023-04-06T14:17:15;8.20;;;5.10;;
11439;SDS011;5776;51.814;4.510;2023-04-06T14:19:41;10.60;;;6.53;;
11439;SDS011;5776;51.814;4.510;2023-04-06T14:22:06;8.37;;;6.50;;
11439;SDS011;5776;51.814;4.510;2023-04-06T14:24:34;8.53;;;5.33;;
11439;SDS011;5776;51.814;4.510;2023-04-06T14:27:01;8.17;;;5.40;;
11439;SDS011;5776;51.814;4.510;2023-04-06T14:29:28;5.87;;;5.17;;
11439;SDS011;5776;51.814;4.510;2023-04-06T14:31:54;7.20;;;5.63;;
11439;SDS011;5776;51.814;4.510;2023-04-06T14:34:26;6.80;;;4.43;;
11439;SDS011;5776;51.814;4.510;2023-04-06T14:36:52;7.07;;;5.70;;
11439;SDS011;5776;51.814;4.510;2023-04-06T14:39:17;7.63;;;5.70;;
11439;SDS011;5776;51.814;4.510;2023-04-06T14:41:43;8.50;;;6.60;;
11439;SDS011;5776;51.814;4.510;2023-04-06T14:44:10;8.63;;;5.97;;
11439;SDS011;5776;51.814;4.510;2023-04-06T14:46:37;6.33;;;4.87;;
11439;SDS011;5776;51.814;4.510;2023-04-06T14:49:03;9.07;;;5.90;;